Lugones, Spain
Current Conditions -  °F | °C
As of 12:00 PM on Monday 20 Oct 2014 (Local Time) from LEAS Reporting Station
Clear Clear  
Wind Chill: 70°   Ceiling: Unl
Heat Index: 70°   Visibility: 6mi
Dew Point: 59°   Wind: 3mph
Humidity: 68%   Direction: 230°SW
Pressure: 30.15"   Gusts: NA
Location:  43.4°N, 5.81°W
Report Text: LEAS 201000Z 23003KT 9000 NSC 21/15 Q1021 NOSIG
Loading
Personal Weather Stations






























Interactive Weather Map
Tropical Storm Tracking
New forecast layout! Learn more

10-Day Weather Forecast

Advertisements
Track Severe Weather on mobile